Time;durP1;ratioP1;P1;durP2;ratioP2;P2;SDS_P1;SDS_P2;PMS_P1;PMS_P2;Temp;Humidity;BMP_temperature;BMP_pressure;BME280_temperature;BME280_humidity;BME280_pressure;Samples;Min_cycle;Max_cycle;Signal;HPM_P1;HPM_P2
2021/03/16 00:01:07;;;;;;;2.47;0.83;;;6.50;99.90;;;;;;4994146;28;20256;-93
2021/03/16 00:03:33;;;;;;;0.10;0.10;;;6.50;99.90;;;;;;5009932;28;20697;-92
2021/03/16 00:05:59;;;;;;;0.53;0.53;;;6.50;99.90;;;;;;5010395;28;20716;-92
2021/03/16 00:08:25;;;;;;;0.10;0.10;;;6.50;99.90;;;;;;5022597;28;20222;-93
2021/03/16 00:10:51;;;;;;;0.30;0.30;;;6.50;99.90;;;;;;4993059;28;20187;-92
2021/03/16 00:13:17;;;;;;;5.93;0.47;;;6.50;99.90;;;;;;4990655;28;20223;-92
2021/03/16 00:15:42;;;;;;;2.17;0.17;;;6.50;99.90;;;;;;4989390;28;20812;-93
2021/03/16 00:18:14;;;;;;;0.40;0.40;;;6.50;99.90;;;;;;5010645;28;20263;-93
2021/03/16 00:20:44;;;;;;;2.83;1.13;;;6.50;99.90;;;;;;5011558;28;20313;-93
2021/03/16 00:23:11;;;;;;;4.23;0.50;;;6.50;99.90;;;;;;5026858;28;20188;-92
2021/03/16 00:25:38;;;;;;;1.03;0.97;;;6.50;99.90;;;;;;5028435;28;20673;-93
2021/03/16 00:28:05;;;;;;;0.60;0.47;;;6.50;99.90;;;;;;5026054;28;20214;-94
2021/03/16 00:30:31;;;;;;;0.80;0.80;;;6.50;99.90;;;;;;5002279;28;20685;-93
2021/03/16 00:32:57;;;;;;;1.73;1.63;;;6.40;99.90;;;;;;5006023;28;20222;-93
2021/03/16 00:35:23;;;;;;;0.57;0.53;;;6.40;99.90;;;;;;5011089;28;20214;-92
2021/03/16 00:37:49;;;;;;;0.70;0.50;;;6.50;99.90;;;;;;4995325;28;20194;-93
2021/03/16 00:40:15;;;;;;;0.20;0.20;;;6.50;99.90;;;;;;5025434;28;20844;-92
2021/03/16 00:42:41;;;;;;;2.83;0.50;;;6.40;99.90;;;;;;4998673;28;20760;-92
2021/03/16 00:45:08;;;;;;;0.37;0.37;;;6.50;99.90;;;;;;5011009;28;20230;-92
2021/03/16 00:47:34;;;;;;;0.30;0.30;;;6.40;99.90;;;;;;4991550;28;20226;-92
2021/03/16 00:50:06;;;;;;;0.30;0.30;;;6.40;99.90;;;;;;4978302;28;20232;-92
2021/03/16 00:52:32;;;;;;;2.37;0.67;;;6.40;99.90;;;;;;5031389;28;20182;-92
2021/03/16 00:54:58;;;;;;;0.73;0.73;;;6.50;99.90;;;;;;4980588;28;20218;-92
2021/03/16 00:57:24;;;;;;;0.37;0.37;;;6.40;99.90;;;;;;5030280;28;20321;-92
2021/03/16 00:59:49;;;;;;;2.10;0.50;;;6.40;99.90;;;;;;4998344;28;20308;-92
2021/03/16 01:02:17;;;;;;;0.10;0.10;;;6.40;99.90;;;;;;5013244;28;20574;-92
2021/03/16 01:04:43;;;;;;;0.97;0.97;;;6.40;99.90;;;;;;5015616;28;20190;-92
2021/03/16 01:07:09;;;;;;;2.10;0.60;;;6.40;99.90;;;;;;4994342;28;20221;-92
2021/03/16 01:09:35;;;;;;;0.30;0.30;;;6.40;99.90;;;;;;5024681;28;20217;-92
2021/03/16 01:12:02;;;;;;;0.60;0.60;;;6.40;99.90;;;;;;4990889;28;20214;-92
2021/03/16 01:14:28;;;;;;;0.30;0.30;;;6.40;99.90;;;;;;5002947;28;20226;-92
2021/03/16 01:16:54;;;;;;;6.70;0.93;;;6.40;99.90;;;;;;5009917;28;20191;-92
2021/03/16 01:19:19;;;;;;;2.53;1.13;;;6.40;99.90;;;;;;5001794;28;20243;-92
2021/03/16 01:21:45;;;;;;;2.33;0.60;;;6.40;99.90;;;;;;4974119;28;20211;-92
2021/03/16 01:24:11;;;;;;;2.07;1.53;;;6.40;99.90;;;;;;4963606;28;21344;-92
2021/03/16 01:26:37;;;;;;;0.30;0.30;;;6.30;99.90;;;;;;4961342;28;20214;-92
2021/03/16 01:29:04;;;;;;;1.30;0.43;;;6.30;99.90;;;;;;4973047;28;20214;-92
2021/03/16 01:31:30;;;;;;;0.77;0.53;;;6.30;99.90;;;;;;4972105;28;20180;-92
2021/03/16 01:33:56;;;;;;;5.10;0.97;;;6.20;99.90;;;;;;4987160;28;20695;-92
2021/03/16 01:36:21;;;;;;;0.40;0.40;;;6.20;99.90;;;;;;4974217;28;20223;-92
2021/03/16 01:38:47;;;;;;;10.23;0.67;;;6.30;99.90;;;;;;4974183;28;20241;-92
2021/03/16 01:41:13;;;;;;;1.30;0.23;;;6.30;99.90;;;;;;4973191;28;20250;-92
2021/03/16 01:43:39;;;;;;;0.83;0.83;;;6.30;99.90;;;;;;4974909;28;20191;-92
2021/03/16 01:46:06;;;;;;;7.00;2.03;;;6.30;99.90;;;;;;4989564;28;20218;-92
2021/03/16 01:48:37;;;;;;;0.57;0.53;;;6.20;99.90;;;;;;4979174;28;20338;-92
2021/03/16 01:51:06;;;;;;;0.10;0.10;;;6.30;99.90;;;;;;4979812;28;21240;-92
2021/03/16 01:53:32;;;;;;;4.60;0.80;;;6.30;99.90;;;;;;4980080;28;20665;-92
2021/03/16 01:56:00;;;;;;;0.73;0.63;;;6.30;99.90;;;;;;4989158;28;20191;-92
2021/03/16 01:58:26;;;;;;;0.30;0.30;;;6.20;99.90;;;;;;5007272;28;20179;-93
2021/03/16 02:00:51;;;;;;;2.33;0.57;;;6.30;99.90;;;;;;4973946;28;20225;-92
2021/03/16 02:03:18;;;;;;;3.20;0.53;;;6.30;99.90;;;;;;5006133;28;20269;-92
2021/03/16 02:05:45;;;;;;;1.43;1.33;;;6.30;99.90;;;;;;4989387;28;20215;-92
2021/03/16 02:08:50;;;;;;;10.97;0.80;;;6.30;99.90;;;;;;4988868;28;20610;-92
2021/03/16 02:11:41;;;;;;;2.73;1.30;;;6.30;99.90;;;;;;5005039;28;20609;-92
2021/03/16 02:14:28;;;;;;;2.50;2.30;;;6.30;99.90;;;;;;5022271;28;20257;-92
2021/03/16 02:16:59;;;;;;;6.97;1.07;;;6.20;99.90;;;;;;5005478;28;20726;-92
2021/03/16 02:20:02;;;;;;;0.93;0.93;;;6.20;99.90;;;;;;5033733;28;20322;-92
2021/03/16 02:22:30;;;;;;;2.43;1.40;;;6.20;99.90;;;;;;5005841;28;20663;-92
2021/03/16 02:25:15;;;;;;;0.60;0.60;;;6.10;99.90;;;;;;5022008;28;20305;-92
2021/03/16 02:28:04;;;;;;;0.90;0.50;;;6.00;99.90;;;;;;5025366;28;20380;-93
2021/03/16 02:30:31;;;;;;;12.73;0.67;;;6.00;99.90;;;;;;4981292;28;20694;-93
2021/03/16 02:32:58;;;;;;;1.97;1.80;;;6.00;99.90;;;;;;5008260;28;20221;-92
2021/03/16 02:35:26;;;;;;;0.90;0.90;;;6.00;99.90;;;;;;5008358;28;20238;-93
2021/03/16 02:37:55;;;;;;;0.10;0.10;;;5.90;99.90;;;;;;5025325;28;20205;-93
2021/03/16 02:40:25;;;;;;;0.20;0.20;;;5.90;99.90;;;;;;5024302;28;20234;-92
2021/03/16 02:42:51;;;;;;;1.90;0.67;;;5.90;99.90;;;;;;5040341;28;20222;-92
2021/03/16 02:45:17;;;;;;;0.67;0.63;;;5.80;99.90;;;;;;4991324;28;20722;-93
2021/03/16 02:47:44;;;;;;;3.50;0.33;;;5.70;99.90;;;;;;5023917;28;20709;-93
2021/03/16 02:50:12;;;;;;;0.10;0.10;;;5.60;99.90;;;;;;4992398;28;20190;-93
2021/03/16 02:52:38;;;;;;;0.30;0.30;;;5.60;99.90;;;;;;5009917;28;20594;-93
2021/03/16 02:55:05;;;;;;;1.43;0.83;;;5.60;99.90;;;;;;5008052;28;20223;-92
2021/03/16 02:57:32;;;;;;;0.50;0.50;;;5.60;99.90;;;;;;5000548;28;20219;-93
2021/03/16 03:00:01;;;;;;;0.10;0.10;;;5.60;99.90;;;;;;4991898;28;20214;-93
2021/03/16 03:02:29;;;;;;;1.93;1.30;;;5.60;99.90;;;;;;5004254;28;20242;-93
2021/03/16 03:04:55;;;;;;;0.10;0.10;;;5.60;99.90;;;;;;5019895;28;20188;-92
2021/03/16 03:07:22;;;;;;;4.00;1.10;;;5.60;99.90;;;;;;5006812;28;20190;-92
2021/03/16 03:09:48;;;;;;;2.10;1.00;;;5.60;99.90;;;;;;5004537;28;20233;-92
2021/03/16 03:12:14;;;;;;;0.20;0.20;;;5.70;99.90;;;;;;4991380;28;20202;-92
2021/03/16 03:14:40;;;;;;;0.77;0.77;;;5.80;99.90;;;;;;4991513;28;20230;-93
2021/03/16 03:17:07;;;;;;;0.33;0.33;;;5.90;99.90;;;;;;4991711;28;20178;-92
2021/03/16 03:19:33;;;;;;;0.40;0.40;;;5.90;99.90;;;;;;5025869;28;20913;-92
2021/03/16 03:22:10;;;;;;;0.63;0.63;;;6.00;99.90;;;;;;5006948;28;20581;-92
2021/03/16 03:24:44;;;;;;;1.70;0.93;;;6.00;99.90;;;;;;5023731;28;20210;-92
2021/03/16 03:27:45;;;;;;;12.33;0.67;;;6.00;99.90;;;;;;5040740;28;20306;-93
2021/03/16 03:30:12;;;;;;;1.23;1.10;;;6.00;99.90;;;;;;4991938;28;20216;-93
2021/03/16 03:32:39;;;;;;;0.40;0.40;;;5.90;99.90;;;;;;4987768;28;20349;-93
2021/03/16 03:35:06;;;;;;;13.93;1.33;;;5.90;99.90;;;;;;5004167;28;20222;-93
2021/03/16 03:37:33;;;;;;;1.23;1.23;;;5.80;99.90;;;;;;5008833;28;20828;-93
2021/03/16 03:40:02;;;;;;;3.60;1.23;;;5.80;99.90;;;;;;5023483;28;20234;-93
2021/03/16 03:42:29;;;;;;;0.70;0.70;;;5.70;99.90;;;;;;5023594;28;20267;-93
2021/03/16 03:44:57;;;;;;;0.40;0.40;;;5.70;99.90;;;;;;5007488;28;20222;-93
2021/03/16 03:47:24;;;;;;;1.20;0.90;;;5.70;99.90;;;;;;5023836;28;20226;-93
2021/03/16 03:49:51;;;;;;;2.33;1.30;;;5.70;99.90;;;;;;5009449;28;20193;-93
2021/03/16 03:52:19;;;;;;;0.73;0.67;;;5.70;99.90;;;;;;5004325;28;20218;-93
2021/03/16 03:54:46;;;;;;;2.93;0.73;;;5.70;99.90;;;;;;5019828;28;20605;-93
2021/03/16 03:57:13;;;;;;;0.67;0.67;;;5.70;99.90;;;;;;5023415;28;20229;-93
2021/03/16 03:59:41;;;;;;;0.37;0.37;;;5.80;99.90;;;;;;5007770;28;20289;-93
2021/03/16 04:02:07;;;;;;;2.27;0.50;;;5.70;99.90;;;;;;5023783;28;20190;-93
2021/03/16 04:04:36;;;;;;;1.17;1.07;;;5.70;99.90;;;;;;5008730;28;20182;-93
2021/03/16 04:07:02;;;;;;;7.53;1.47;;;5.70;99.90;;;;;;5023621;28;20218;-93
2021/03/16 04:09:28;;;;;;;0.20;0.20;;;5.70;99.90;;;;;;5023359;28;20214;-93
2021/03/16 04:11:55;;;;;;;0.27;0.20;;;5.70;99.90;;;;;;4991082;28;20248;-92
2021/03/16 04:14:21;;;;;;;6.43;1.03;;;5.60;99.90;;;;;;4990403;28;20230;-93
2021/03/16 04:16:48;;;;;;;0.30;0.30;;;5.60;99.90;;;;;;5013897;28;20183;-93
2021/03/16 04:19:15;;;;;;;0.10;0.10;;;5.60;99.90;;;;;;4993914;28;20253;-94
2021/03/16 04:21:42;;;;;;;0.40;0.40;;;5.50;99.90;;;;;;5008849;28;20218;-93
2021/03/16 04:24:09;;;;;;;4.13;1.10;;;5.50;99.90;;;;;;5013553;28;20217;-93
2021/03/16 04:26:35;;;;;;;0.30;0.30;;;5.40;99.90;;;;;;5014023;28;20217;-93
2021/03/16 04:29:01;;;;;;;4.17;0.30;;;5.40;99.90;;;;;;5013858;28;20556;-93
2021/03/16 04:31:26;;;;;;;2.83;1.07;;;5.40;99.90;;;;;;4997397;28;20179;-93
2021/03/16 04:33:52;;;;;;;1.43;1.10;;;5.40;99.90;;;;;;5022171;28;20263;-93
2021/03/16 04:36:18;;;;;;;0.57;0.57;;;5.50;99.90;;;;;;4997079;28;20226;-93
2021/03/16 04:38:44;;;;;;;0.37;0.37;;;5.50;99.90;;;;;;4993883;28;20699;-94
2021/03/16 04:41:09;;;;;;;0.67;0.47;;;5.60;99.90;;;;;;4980081;28;20183;-93
2021/03/16 04:43:40;;;;;;;6.20;1.17;;;5.60;99.90;;;;;;4998377;28;20182;-93
2021/03/16 04:46:06;;;;;;;0.30;0.30;;;5.70;99.90;;;;;;5014024;28;20218;-93
2021/03/16 04:48:32;;;;;;;0.10;0.10;;;5.70;99.90;;;;;;4997059;28;20241;-93
2021/03/16 04:50:58;;;;;;;3.50;0.63;;;5.80;99.90;;;;;;4997366;28;20222;-93
2021/03/16 04:53:23;;;;;;;0.10;0.10;;;5.80;99.90;;;;;;4993985;28;20219;-93
2021/03/16 04:55:49;;;;;;;0.57;0.53;;;5.70;99.90;;;;;;4994949;28;20198;-93
2021/03/16 04:58:15;;;;;;;0.30;0.30;;;5.70;99.90;;;;;;4996569;28;20264;-93
2021/03/16 05:00:40;;;;;;;0.67;0.47;;;5.70;99.90;;;;;;4982567;28;20250;-93
2021/03/16 05:03:06;;;;;;;0.10;0.10;;;5.70;99.90;;;;;;4993395;28;20211;-93
2021/03/16 05:05:32;;;;;;;0.20;0.20;;;5.60;99.90;;;;;;4993802;28;20247;-93
2021/03/16 05:07:57;;;;;;;4.43;0.90;;;5.60;99.90;;;;;;4977577;28;20222;-93
2021/03/16 05:10:23;;;;;;;0.10;0.10;;;5.60;99.90;;;;;;4994739;28;20661;-93
2021/03/16 05:12:49;;;;;;;0.13;0.13;;;5.60;99.90;;;;;;5008682;28;20210;-93
2021/03/16 05:15:15;;;;;;;6.23;0.30;;;5.60;99.90;;;;;;4996862;28;20241;-94
2021/03/16 05:17:41;;;;;;;0.20;0.20;;;5.70;99.90;;;;;;5028992;28;20265;-93
2021/03/16 05:20:07;;;;;;;0.93;0.27;;;5.70;99.90;;;;;;4994791;28;20580;-93
2021/03/16 05:22:33;;;;;;;5.37;0.90;;;5.70;99.90;;;;;;4978845;28;20192;-93
2021/03/16 05:24:59;;;;;;;0.83;0.70;;;5.70;99.90;;;;;;4993786;28;20202;-93
2021/03/16 05:27:25;;;;;;;0.20;0.20;;;5.60;99.90;;;;;;5027501;28;20233;-93
2021/03/16 05:29:51;;;;;;;0.60;0.60;;;5.60;99.90;;;;;;5010077;28;20305;-92
2021/03/16 05:32:17;;;;;;;0.40;0.40;;;5.50;99.90;;;;;;5025982;28;20322;-92
2021/03/16 05:34:43;;;;;;;0.20;0.20;;;5.50;99.90;;;;;;4991699;28;20745;-92
2021/03/16 05:37:08;;;;;;;0.93;0.93;;;5.50;99.90;;;;;;4993594;28;20871;-92
2021/03/16 05:39:34;;;;;;;0.33;0.33;;;5.50;99.90;;;;;;4993523;28;20636;-92
2021/03/16 05:42:01;;;;;;;0.10;0.10;;;5.50;99.90;;;;;;4993591;28;20215;-92
2021/03/16 05:44:28;;;;;;;0.10;0.10;;;5.50;99.90;;;;;;5009908;28;20690;-93
2021/03/16 05:46:54;;;;;;;0.87;0.80;;;5.50;99.90;;;;;;5025554;28;20863;-92
2021/03/16 05:49:23;;;;;;;0.83;0.83;;;5.50;99.90;;;;;;5027377;28;20269;-93
2021/03/16 05:51:49;;;;;;;0.13;0.13;;;5.40;99.90;;;;;;5025749;28;20219;-93
2021/03/16 05:54:16;;;;;;;0.83;0.70;;;5.30;99.90;;;;;;5014675;28;20226;-93
2021/03/16 05:56:42;;;;;;;15.00;0.50;;;5.30;99.90;;;;;;4980681;28;20234;-93
2021/03/16 05:59:08;;;;;;;0.40;0.40;;;5.30;99.90;;;;;;4993755;28;20277;-92
2021/03/16 06:01:34;;;;;;;0.23;0.23;;;5.30;99.90;;;;;;4995296;28;20726;-94
2021/03/16 06:04:03;;;;;;;0.20;0.20;;;5.30;99.90;;;;;;5026314;28;20561;-93
2021/03/16 06:06:33;;;;;;;1.37;0.90;;;5.30;99.90;;;;;;5026481;28;20579;-93
2021/03/16 06:08:59;;;;;;;0.30;0.30;;;5.40;99.90;;;;;;4994047;28;20211;-93
2021/03/16 06:11:25;;;;;;;3.60;0.67;;;5.40;99.90;;;;;;4993991;28;20333;-93
2021/03/16 06:13:54;;;;;;;0.93;0.93;;;5.50;99.90;;;;;;5027118;28;20210;-92
2021/03/16 06:16:20;;;;;;;0.50;0.50;;;5.50;99.90;;;;;;5025629;28;20230;-92
2021/03/16 06:18:47;;;;;;;12.30;2.90;;;5.70;99.90;;;;;;5010352;28;20317;-93
2021/03/16 06:21:21;;;;;;;0.37;0.37;;;5.90;99.90;;;;;;5012511;28;20701;-93
2021/03/16 06:24:05;;;;;;;2.63;0.60;;;6.10;99.90;;;;;;5046547;28;20229;-92
2021/03/16 06:26:34;;;;;;;1.37;1.37;;;6.20;99.90;;;;;;4996257;28;20734;-92
2021/03/16 06:29:10;;;;;;;2.67;0.67;;;6.30;99.90;;;;;;5011040;28;20181;-92
2021/03/16 06:31:36;;;;;;;3.30;0.77;;;6.20;99.90;;;;;;5015227;28;20213;-93
2021/03/16 06:34:02;;;;;;;0.27;0.27;;;6.10;99.90;;;;;;5011568;28;20249;-92
2021/03/16 06:36:30;;;;;;;0.27;0.27;;;6.10;99.90;;;;;;5030183;28;20954;-92
2021/03/16 06:38:56;;;;;;;0.13;0.13;;;6.10;99.90;;;;;;5009123;28;20217;-90
2021/03/16 06:41:24;;;;;;;0.60;0.60;;;6.40;99.90;;;;;;5025625;28;20769;-92
2021/03/16 06:43:54;;;;;;;2.73;0.60;;;6.60;99.90;;;;;;5027854;28;20655;-93
2021/03/16 06:46:36;;;;;;;1.67;0.27;;;6.70;99.90;;;;;;5029743;28;20214;-92
2021/03/16 06:49:17;;;;;;;11.33;0.60;;;7.00;99.90;;;;;;5003197;28;20215;-92
2021/03/16 06:51:43;;;;;;;0.10;0.10;;;7.80;99.90;;;;;;5024695;28;20308;-92
2021/03/16 06:54:18;;;;;;;2.97;0.93;;;8.50;99.90;;;;;;5014154;28;20317;-93
2021/03/16 06:57:11;;;;;;;6.70;0.73;;;8.80;99.90;;;;;;5029273;28;20217;-93
2021/03/16 06:59:37;;;;;;;0.50;0.50;;;9.20;99.90;;;;;;5028155;28;20206;-93
2021/03/16 07:02:12;;;;;;;5.87;1.13;;;9.20;99.90;;;;;;4998382;28;20182;-95
2021/03/16 07:04:43;;;;;;;0.83;0.50;;;9.00;99.90;;;;;;5018404;28;20185;-92
2021/03/16 07:07:10;;;;;;;0.60;0.50;;;8.90;99.90;;;;;;5019527;28;20297;-96
2021/03/16 07:09:37;;;;;;;0.97;0.93;;;8.70;99.90;;;;;;5022970;28;20313;-91
2021/03/16 07:12:03;;;;;;;0.20;0.20;;;9.00;99.90;;;;;;5011356;28;20217;-93
2021/03/16 07:14:31;;;;;;;2.17;0.77;;;8.30;99.90;;;;;;5006506;28;20357;-92
2021/03/16 07:17:00;;;;;;;2.73;1.07;;;7.80;99.90;;;;;;5007246;28;20277;-92
2021/03/16 07:19:28;;;;;;;2.30;0.93;;;7.50;99.90;;;;;;5004918;28;20242;-92
2021/03/16 07:21:56;;;;;;;1.17;0.83;;;7.20;99.90;;;;;;5012323;28;20239;-92
2021/03/16 07:24:24;;;;;;;1.80;0.20;;;7.10;99.90;;;;;;5010114;28;21236;-92
2021/03/16 07:26:50;;;;;;;2.27;0.27;;;6.90;99.90;;;;;;5027684;28;20268;-92
2021/03/16 07:29:17;;;;;;;0.93;0.90;;;7.00;99.90;;;;;;5044690;28;20213;-93
2021/03/16 07:31:43;;;;;;;5.50;0.67;;;7.10;99.90;;;;;;5006356;28;20186;-93
2021/03/16 07:34:12;;;;;;;3.20;0.87;;;7.30;99.90;;;;;;5027734;28;20213;-90
2021/03/16 07:36:39;;;;;;;0.20;0.20;;;7.50;99.90;;;;;;5002609;28;20206;-90
2021/03/16 07:39:06;;;;;;;0.10;0.10;;;7.60;99.90;;;;;;4994687;28;20733;-90
2021/03/16 07:41:35;;;;;;;3.87;0.97;;;7.60;99.90;;;;;;5006080;28;20206;-90
2021/03/16 07:44:08;;;;;;;6.97;1.20;;;7.90;99.90;;;;;;5008301;28;20183;-90
2021/03/16 07:46:43;;;;;;;0.20;0.20;;;7.70;99.90;;;;;;5027654;28;20193;-90
2021/03/16 07:49:12;;;;;;;0.93;0.90;;;7.60;99.90;;;;;;5043828;28;20724;-90
2021/03/16 07:51:44;;;;;;;0.03;0.03;;;7.50;99.90;;;;;;5012489;28;20709;-90
2021/03/16 07:54:11;;;;;;;0.10;0.10;;;7.50;99.90;;;;;;5001725;28;20733;-90
2021/03/16 07:56:40;;;;;;;1.53;0.87;;;7.50;99.90;;;;;;4994141;28;20205;-89
2021/03/16 07:59:07;;;;;;;1.50;1.13;;;7.40;99.90;;;;;;5026731;28;20277;-89
2021/03/16 08:01:47;;;;;;;0.20;0.20;;;7.60;99.90;;;;;;5011581;28;20643;-90
2021/03/16 08:04:13;;;;;;;0.13;0.13;;;8.00;99.90;;;;;;5042801;28;20335;-90
2021/03/16 08:06:40;;;;;;;0.80;0.80;;;7.90;99.90;;;;;;5026162;28;20683;-90
2021/03/16 08:09:18;;;;;;;0.33;0.33;;;7.70;99.90;;;;;;4984461;28;20552;-90
2021/03/16 08:11:44;;;;;;;0.87;0.83;;;7.70;99.90;;;;;;5026323;28;20277;-90
2021/03/16 08:14:10;;;;;;;0.17;0.17;;;7.60;99.90;;;;;;5026227;28;20202;-90
2021/03/16 08:16:37;;;;;;;0.30;0.30;;;7.60;99.90;;;;;;4995061;28;20190;-89
2021/03/16 08:19:13;;;;;;;0.20;0.20;;;7.50;99.90;;;;;;5026679;28;20229;-90
2021/03/16 08:21:43;;;;;;;0.10;0.10;;;7.50;99.90;;;;;;5026186;28;20213;-90
2021/03/16 08:24:13;;;;;;;0.20;0.20;;;7.50;99.90;;;;;;5025924;28;20213;-90
2021/03/16 08:26:57;;;;;;;0.23;0.23;;;7.50;99.90;;;;;;5026313;28;20271;-90
2021/03/16 08:29:27;;;;;;;0.63;0.63;;;7.40;99.90;;;;;;5016749;28;20742;-90
2021/03/16 08:31:55;;;;;;;0.30;0.30;;;7.40;99.90;;;;;;5042403;28;20190;-90
2021/03/16 08:34:21;;;;;;;1.13;0.40;;;7.60;99.90;;;;;;5038608;28;20596;-90
2021/03/16 08:36:47;;;;;;;1.40;0.90;;;7.50;99.90;;;;;;5022798;28;20644;-90
2021/03/16 08:39:24;;;;;;;0.20;0.20;;;7.60;99.90;;;;;;5009068;28;20233;-90
2021/03/16 08:41:57;;;;;;;3.93;1.07;;;7.50;99.90;;;;;;5010615;28;20209;-89
2021/03/16 08:44:24;;;;;;;3.30;1.07;;;7.50;99.90;;;;;;5022829;28;20236;-90
2021/03/16 08:46:50;;;;;;;0.67;0.63;;;7.60;99.90;;;;;;5010486;28;20555;-90
2021/03/16 08:49:20;;;;;;;7.33;1.23;;;7.60;99.90;;;;;;4973093;28;20210;-90
2021/03/16 08:51:46;;;;;;;0.60;0.60;;;7.50;99.90;;;;;;5017122;28;20257;-90
2021/03/16 08:54:25;;;;;;;0.10;0.10;;;7.60;99.90;;;;;;5005684;28;20253;-90
2021/03/16 08:56:52;;;;;;;0.30;0.30;;;7.70;99.90;;;;;;5014534;28;20226;-89
2021/03/16 08:59:20;;;;;;;0.30;0.30;;;7.60;99.90;;;;;;5025698;28;20253;-90
2021/03/16 09:01:49;;;;;;;0.47;0.47;;;7.60;99.90;;;;;;5027568;28;20239;-90
2021/03/16 09:04:16;;;;;;;1.40;1.07;;;7.30;99.90;;;;;;5028923;28;20302;-90
2021/03/16 09:06:42;;;;;;;0.97;0.50;;;7.40;99.90;;;;;;4982485;28;20229;-90
2021/03/16 09:09:10;;;;;;;0.50;0.50;;;7.40;99.90;;;;;;5003662;28;20221;-90
2021/03/16 09:11:42;;;;;;;0.67;0.33;;;7.60;99.90;;;;;;5028702;28;20697;-90
2021/03/16 09:14:15;;;;;;;0.73;0.73;;;7.50;99.90;;;;;;5013462;28;20725;-90
2021/03/16 09:16:43;;;;;;;0.13;0.13;;;7.60;99.90;;;;;;5007433;28;20185;-90
2021/03/16 09:19:12;;;;;;;0.20;0.20;;;7.70;99.90;;;;;;5028313;28;20725;-89
2021/03/16 09:21:49;;;;;;;2.73;0.80;;;7.70;99.90;;;;;;5032520;28;20786;-89
2021/03/16 09:24:19;;;;;;;8.73;0.73;;;7.60;99.90;;;;;;5009697;28;20256;-90
2021/03/16 09:26:51;;;;;;;0.30;0.30;;;7.70;99.90;;;;;;5026749;28;20273;-90
2021/03/16 09:29:17;;;;;;;0.67;0.53;;;7.90;99.90;;;;;;5007848;28;20238;-90
2021/03/16 09:31:44;;;;;;;0.23;0.23;;;7.90;99.90;;;;;;4993926;28;20187;-90
2021/03/16 09:34:12;;;;;;;0.40;0.37;;;7.90;99.90;;;;;;5008166;28;20771;-90
2021/03/16 09:36:38;;;;;;;0.43;0.43;;;8.10;99.90;;;;;;5002710;28;20223;-90
2021/03/16 09:39:04;;;;;;;0.30;0.30;;;8.30;99.90;;;;;;4986869;28;20239;-90
2021/03/16 09:41:30;;;;;;;0.27;0.27;;;7.90;99.90;;;;;;5029599;28;20220;-90
2021/03/16 09:43:56;;;;;;;4.80;0.30;;;7.80;99.90;;;;;;5029027;28;20182;-90
2021/03/16 09:46:22;;;;;;;0.90;0.90;;;7.90;99.90;;;;;;5013849;28;20194;-89
2021/03/16 09:48:50;;;;;;;0.20;0.20;;;7.90;99.90;;;;;;5029190;28;20225;-90
2021/03/16 09:51:21;;;;;;;0.50;0.50;;;8.00;99.90;;;;;;5012347;28;20579;-90
2021/03/16 09:53:52;;;;;;;1.43;0.47;;;8.00;99.90;;;;;;5028101;28;20222;-90
2021/03/16 09:56:25;;;;;;;0.67;0.63;;;8.40;99.90;;;;;;5042316;28;20802;-90
2021/03/16 09:58:51;;;;;;;2.70;0.73;;;8.40;99.90;;;;;;5019322;28;20172;-89
2021/03/16 10:01:21;;;;;;;0.20;0.20;;;8.90;99.90;;;;;;5028948;28;20253;-90
2021/03/16 10:03:58;;;;;;;0.73;0.73;;;8.40;99.90;;;;;;5028971;28;20232;-90
2021/03/16 10:06:37;;;;;;;1.30;0.67;;;8.50;99.90;;;;;;5033678;28;20235;-90
2021/03/16 10:09:17;;;;;;;0.20;0.20;;;8.80;99.90;;;;;;5018360;28;20230;-89
2021/03/16 10:11:43;;;;;;;1.27;0.53;;;8.90;99.90;;;;;;5044902;28;20577;-89
2021/03/16 10:14:09;;;;;;;0.50;0.50;;;8.70;99.90;;;;;;5012269;28;20210;-89
2021/03/16 10:16:35;;;;;;;0.20;0.20;;;8.50;99.90;;;;;;5029435;28;20189;-89
2021/03/16 10:19:02;;;;;;;1.97;0.60;;;8.40;99.90;;;;;;5010030;28;21358;-89
2021/03/16 10:21:32;;;;;;;0.30;0.23;;;8.70;99.90;;;;;;5011945;28;20236;-89
2021/03/16 10:24:05;;;;;;;0.27;0.27;;;8.70;99.90;;;;;;5028319;28;21024;-88
2021/03/16 10:26:31;;;;;;;1.63;1.00;;;8.60;99.90;;;;;;5027459;28;20213;-88
2021/03/16 10:29:12;;;;;;;0.40;0.40;;;8.60;99.90;;;;;;5027606;28;20182;-89
2021/03/16 10:31:38;;;;;;;1.80;0.47;;;8.70;99.90;;;;;;5028836;28;20183;-89
2021/03/16 10:34:04;;;;;;;0.83;0.37;;;8.80;99.90;;;;;;4995916;28;20309;-89
2021/03/16 10:36:34;;;;;;;0.30;0.30;;;9.20;99.90;;;;;;5028594;28;20300;-89
2021/03/16 10:39:00;;;;;;;3.30;0.73;;;9.60;99.90;;;;;;5019207;28;20222;-89
2021/03/16 10:41:26;;;;;;;0.40;0.40;;;9.40;99.90;;;;;;4980137;28;20229;-88
2021/03/16 10:43:52;;;;;;;1.43;1.33;;;9.10;99.90;;;;;;5012018;28;20199;-89
2021/03/16 10:46:18;;;;;;;0.63;0.50;;;9.00;99.90;;;;;;5028493;28;20295;-88
2021/03/16 10:48:43;;;;;;;1.73;0.90;;;8.90;99.90;;;;;;4995135;28;20218;-89
2021/03/16 10:51:10;;;;;;;3.63;0.70;;;8.90;99.90;;;;;;5027824;28;20619;-89
2021/03/16 10:53:36;;;;;;;1.40;0.60;;;8.60;99.90;;;;;;5039936;28;20218;-89
2021/03/16 10:56:05;;;;;;;0.10;0.10;;;8.70;99.90;;;;;;5008827;28;20248;-90
2021/03/16 10:58:32;;;;;;;6.43;1.43;;;9.00;99.90;;;;;;4996341;28;20198;-90
2021/03/16 11:00:58;;;;;;;9.43;1.90;;;9.10;99.90;;;;;;5043851;28;20225;-89
2021/03/16 11:03:24;;;;;;;0.10;0.10;;;9.30;99.90;;;;;;5043767;28;20256;-90
2021/03/16 11:05:49;;;;;;;0.77;0.60;;;9.20;99.90;;;;;;4995505;28;20230;-89
2021/03/16 11:08:15;;;;;;;1.77;0.40;;;8.90;99.90;;;;;;5011013;28;20222;-89
2021/03/16 11:10:41;;;;;;;0.30;0.30;;;8.90;99.90;;;;;;5012480;28;20190;-89
2021/03/16 11:13:07;;;;;;;0.83;0.83;;;9.00;99.90;;;;;;5009996;28;20589;-89
2021/03/16 11:15:33;;;;;;;0.87;0.87;;;9.20;99.90;;;;;;5010650;28;20224;-89
2021/03/16 11:17:59;;;;;;;1.33;1.17;;;9.10;99.90;;;;;;4986161;28;20273;-88
2021/03/16 11:20:25;;;;;;;0.40;0.40;;;9.20;99.90;;;;;;4979295;28;20725;-90
2021/03/16 11:22:51;;;;;;;0.27;0.27;;;9.00;99.90;;;;;;5028557;28;20182;-89
2021/03/16 11:25:16;;;;;;;3.40;1.37;;;9.30;99.90;;;;;;5026493;28;20284;-88
2021/03/16 11:27:42;;;;;;;2.50;0.40;;;9.00;99.90;;;;;;5010158;28;20226;-87
2021/03/16 11:30:09;;;;;;;0.80;0.80;;;8.70;99.90;;;;;;5022267;28;20206;-89
2021/03/16 11:32:36;;;;;;;0.63;0.63;;;8.50;99.90;;;;;;4996090;28;20245;-89
2021/03/16 11:35:03;;;;;;;2.27;0.30;;;8.70;99.90;;;;;;5026166;28;20210;-89
2021/03/16 11:37:29;;;;;;;0.43;0.43;;;8.50;99.90;;;;;;5011875;28;20197;-89
2021/03/16 11:39:55;;;;;;;1.17;0.73;;;8.40;99.90;;;;;;5027087;28;20226;-89
2021/03/16 11:42:21;;;;;;;0.30;0.30;;;8.30;99.90;;;;;;5026369;28;20224;-89
2021/03/16 11:44:47;;;;;;;1.83;1.13;;;8.40;99.90;;;;;;5010385;28;20248;-89
2021/03/16 11:47:14;;;;;;;0.77;0.70;;;8.40;99.90;;;;;;4994106;28;20642;-89
2021/03/16 11:49:39;;;;;;;3.50;0.40;;;8.40;99.90;;;;;;5011701;28;20219;-89
2021/03/16 11:52:05;;;;;;;2.03;0.63;;;8.70;99.90;;;;;;4981963;28;20262;-90
2021/03/16 11:54:31;;;;;;;0.10;0.10;;;8.90;99.90;;;;;;4986255;28;20234;-88
2021/03/16 11:56:57;;;;;;;0.67;0.57;;;9.00;99.90;;;;;;5026627;28;20233;-89
2021/03/16 11:59:22;;;;;;;0.10;0.10;;;9.30;99.90;;;;;;5026432;28;20765;-88
2021/03/16 12:01:49;;;;;;;1.43;0.77;;;9.50;99.90;;;;;;4995650;28;20216;-89
2021/03/16 12:04:15;;;;;;;0.23;0.23;;;9.80;99.90;;;;;;4994045;28;20221;-89
2021/03/16 12:06:40;;;;;;;2.50;1.17;;;10.00;99.90;;;;;;4995398;28;21061;-88
2021/03/16 12:09:09;;;;;;;4.27;0.30;;;10.20;99.90;;;;;;5010442;28;20263;-89
2021/03/16 12:11:35;;;;;;;1.30;1.20;;;9.90;99.90;;;;;;5026222;28;20275;-89
2021/03/16 12:14:02;;;;;;;0.20;0.20;;;10.10;99.90;;;;;;4993813;28;20202;-90
2021/03/16 12:16:28;;;;;;;3.20;0.77;;;9.70;99.90;;;;;;5027613;28;20247;-88
2021/03/16 12:18:54;;;;;;;0.40;0.33;;;9.60;99.90;;;;;;4991346;28;20742;-89
2021/03/16 12:21:20;;;;;;;0.50;0.50;;;9.50;99.90;;;;;;5026209;28;20226;-88
2021/03/16 12:23:46;;;;;;;1.90;0.73;;;9.40;99.90;;;;;;5008574;28;20218;-87
2021/03/16 12:26:12;;;;;;;12.73;1.43;;;9.30;99.90;;;;;;4993321;28;20205;-88
2021/03/16 12:28:39;;;;;;;0.10;0.10;;;9.40;99.90;;;;;;4994398;28;20202;-88
2021/03/16 12:31:05;;;;;;;1.83;0.77;;;9.20;99.90;;;;;;5009599;28;20247;-88
2021/03/16 12:33:31;;;;;;;1.27;0.73;;;9.00;99.90;;;;;;4989384;28;20222;-89
2021/03/16 12:35:57;;;;;;;28.47;1.13;;;9.00;99.90;;;;;;5009438;28;20218;-90
2021/03/16 12:38:22;;;;;;;2.10;1.53;;;9.10;99.90;;;;;;5013893;28;20252;-88
2021/03/16 12:40:48;;;;;;;0.30;0.30;;;9.00;99.90;;;;;;5014869;28;20197;-89
2021/03/16 12:43:14;;;;;;;1.90;0.90;;;9.20;99.90;;;;;;5029035;28;21219;-89
2021/03/16 12:45:42;;;;;;;2.00;0.40;;;9.10;99.90;;;;;;5006271;28;20220;-88
2021/03/16 12:48:09;;;;;;;0.40;0.40;;;8.90;99.90;;;;;;4988427;28;20240;-89
2021/03/16 12:50:35;;;;;;;0.30;0.30;;;8.80;99.90;;;;;;4997395;28;20245;-88
2021/03/16 12:53:01;;;;;;;0.80;0.50;;;8.70;99.90;;;;;;5013632;28;20214;-88
2021/03/16 12:55:27;;;;;;;0.73;0.73;;;8.60;99.90;;;;;;4999089;28;20296;-89
2021/03/16 12:57:52;;;;;;;4.83;2.83;;;8.60;99.90;;;;;;4996277;28;20213;-89
2021/03/16 13:00:19;;;;;;;0.30;0.30;;;8.50;99.90;;;;;;5013334;28;20217;-89
2021/03/16 13:02:44;;;;;;;0.30;0.30;;;8.50;99.90;;;;;;5013083;28;20237;-88